Terminal Aerodrome Forecast
Issued by NWS

Home | Current Version | Previous Version | Text Only | Print | Product List | Glossary On
Versions: 1 2 3 4 5 6 7 8 9 10 11 12 13 14 15 16 17 18 19 20 21 22 23 24 25 26
000
FTPA31 PHFO 030500
TAFKOA
TAF
PHKO 030529Z 0306/0406 15010KT P6SM FEW040 SCT060
     FM031900 25008KT P6SM FEW040 BKN060
     FM040400 17008KT P6SM FEW020 SCT060=

USA.gov is the U.S. government's official web portal to all federal, state and local government web resources and services.